sensor_id;sensor_type;location;lat;lon;timestamp;pressure;altitude;pressure_sealevel;temperature;humidity
27210;BME280;14721;42.668;23.386;2023-03-12T00:01:48;94445.97;;;3.99;67.15
27210;BME280;14721;42.668;23.386;2023-03-12T00:04:14;94463.91;;;3.94;66.83
27210;BME280;14721;42.668;23.386;2023-03-12T00:06:40;94457.03;;;3.92;66.93
27210;BME280;14721;42.668;23.386;2023-03-12T00:09:06;94469.66;;;3.86;67.00
27210;BME280;14721;42.668;23.386;2023-03-12T00:11:33;94474.94;;;3.86;66.99
27210;BME280;14721;42.668;23.386;2023-03-12T00:13:59;94480.22;;;3.86;66.73
27210;BME280;14721;42.668;23.386;2023-03-12T00:16:26;94490.41;;;3.78;66.54
27210;BME280;14721;42.668;23.386;2023-03-12T00:18:54;94492.31;;;3.76;66.98
27210;BME280;14721;42.668;23.386;2023-03-12T00:21:22;94494.97;;;3.76;66.56
27210;BME280;14721;42.668;23.386;2023-03-12T00:23:48;94496.25;;;3.69;66.67
27210;BME280;14721;42.668;23.386;2023-03-12T00:26:16;94492.97;;;3.66;66.65
27210;BME280;14721;42.668;23.386;2023-03-12T00:28:43;94502.69;;;3.65;66.70
27210;BME280;14721;42.668;23.386;2023-03-12T00:33:43;94502.38;;;3.56;66.67
27210;BME280;14721;42.668;23.386;2023-03-12T00:36:20;94501.72;;;3.52;67.09
27210;BME280;14721;42.668;23.386;2023-03-12T00:38:50;94501.91;;;3.49;67.26
27210;BME280;14721;42.668;23.386;2023-03-12T00:41:16;94495.88;;;3.47;67.40
27210;BME280;14721;42.668;23.386;2023-03-12T00:43:45;94498.50;;;3.47;68.10
27210;BME280;14721;42.668;23.386;2023-03-12T00:46:12;94499.19;;;3.51;67.54
27210;BME280;14721;42.668;23.386;2023-03-12T00:48:38;94493.50;;;3.43;67.28
27210;BME280;14721;42.668;23.386;2023-03-12T00:51:10;94485.75;;;3.40;66.87
27210;BME280;14721;42.668;23.386;2023-03-12T00:53:36;94491.91;;;3.40;66.73
27210;BME280;14721;42.668;23.386;2023-03-12T00:56:03;94499.56;;;3.45;66.39
27210;BME280;14721;42.668;23.386;2023-03-12T00:58:31;94495.38;;;3.41;66.69
27210;BME280;14721;42.668;23.386;2023-03-12T01:00:58;94494.44;;;3.42;67.51
27210;BME280;14721;42.668;23.386;2023-03-12T01:03:26;94499.91;;;3.39;67.32
27210;BME280;14721;42.668;23.386;2023-03-12T01:05:51;94502.16;;;3.31;67.93
27210;BME280;14721;42.668;23.386;2023-03-12T01:08:21;94512.81;;;3.29;68.16
27210;BME280;14721;42.668;23.386;2023-03-12T01:10:48;94514.59;;;3.29;68.13
27210;BME280;14721;42.668;23.386;2023-03-12T01:13:13;94511.03;;;3.30;67.87
27210;BME280;14721;42.668;23.386;2023-03-12T01:15:38;94515.97;;;3.20;68.43
27210;BME280;14721;42.668;23.386;2023-03-12T01:18:04;94520.50;;;3.18;68.97
27210;BME280;14721;42.668;23.386;2023-03-12T01:20:30;94524.00;;;3.19;68.86
27210;BME280;14721;42.668;23.386;2023-03-12T01:22:55;94527.94;;;3.12;69.30
27210;BME280;14721;42.668;23.386;2023-03-12T01:25:21;94515.84;;;3.08;69.18
27210;BME280;14721;42.668;23.386;2023-03-12T01:27:46;94524.03;;;3.03;69.20
27210;BME280;14721;42.668;23.386;2023-03-12T01:30:12;94527.25;;;3.08;69.10
27210;BME280;14721;42.668;23.386;2023-03-12T01:32:39;94517.31;;;2.98;69.52
27210;BME280;14721;42.668;23.386;2023-03-12T01:35:05;94521.47;;;3.02;69.74
27210;BME280;14721;42.668;23.386;2023-03-12T01:37:31;94521.56;;;3.00;69.65
27210;BME280;14721;42.668;23.386;2023-03-12T01:39:57;94515.72;;;2.95;69.41
27210;BME280;14721;42.668;23.386;2023-03-12T01:42:26;94523.81;;;2.92;69.54
27210;BME280;14721;42.668;23.386;2023-03-12T01:44:55;94516.91;;;2.90;69.44
27210;BME280;14721;42.668;23.386;2023-03-12T01:47:22;94523.31;;;2.86;69.63
27210;BME280;14721;42.668;23.386;2023-03-12T01:49:49;94517.06;;;2.87;69.76
27210;BME280;14721;42.668;23.386;2023-03-12T01:52:26;94512.66;;;2.87;70.17
27210;BME280;14721;42.668;23.386;2023-03-12T01:55:14;94519.44;;;2.91;69.86
27210;BME280;14721;42.668;23.386;2023-03-12T01:57:52;94516.81;;;2.91;69.92
27210;BME280;14721;42.668;23.386;2023-03-12T02:00:22;94524.06;;;2.88;69.88
27210;BME280;14721;42.668;23.386;2023-03-12T02:02:50;94512.41;;;2.92;69.73
27210;BME280;14721;42.668;23.386;2023-03-12T02:05:24;94521.66;;;2.99;69.08
27210;BME280;14721;42.668;23.386;2023-03-12T02:07:52;94530.59;;;2.96;69.22
27210;BME280;14721;42.668;23.386;2023-03-12T02:10:18;94517.16;;;2.85;69.35
27210;BME280;14721;42.668;23.386;2023-03-12T02:12:44;94520.50;;;2.89;69.20
27210;BME280;14721;42.668;23.386;2023-03-12T02:15:10;94517.88;;;2.73;69.92
27210;BME280;14721;42.668;23.386;2023-03-12T02:17:36;94533.25;;;2.81;69.67
27210;BME280;14721;42.668;23.386;2023-03-12T02:20:14;94526.88;;;2.85;70.20
27210;BME280;14721;42.668;23.386;2023-03-12T02:22:46;94527.97;;;2.81;69.89
27210;BME280;14721;42.668;23.386;2023-03-12T02:25:43;94519.59;;;2.74;70.19
27210;BME280;14721;42.668;23.386;2023-03-12T02:28:15;94524.94;;;2.73;70.08
27210;BME280;14721;42.668;23.386;2023-03-12T02:30:45;94516.09;;;2.74;70.10
27210;BME280;14721;42.668;23.386;2023-03-12T02:33:12;94520.84;;;2.83;69.97
27210;BME280;14721;42.668;23.386;2023-03-12T02:35:40;94520.06;;;2.81;69.00
27210;BME280;14721;42.668;23.386;2023-03-12T02:40:50;94510.81;;;2.74;68.42
27210;BME280;14721;42.668;23.386;2023-03-12T02:43:18;94517.88;;;2.73;69.47
27210;BME280;14721;42.668;23.386;2023-03-12T02:45:45;94502.13;;;2.72;69.44
27210;BME280;14721;42.668;23.386;2023-03-12T02:48:10;94501.38;;;2.70;69.30
27210;BME280;14721;42.668;23.386;2023-03-12T02:50:36;94511.16;;;2.68;69.24
27210;BME280;14721;42.668;23.386;2023-03-12T02:53:01;94497.63;;;2.58;69.53
27210;BME280;14721;42.668;23.386;2023-03-12T02:55:27;94508.59;;;2.66;70.39
27210;BME280;14721;42.668;23.386;2023-03-12T02:57:52;94504.53;;;2.61;70.74
27210;BME280;14721;42.668;23.386;2023-03-12T03:00:18;94510.81;;;2.58;69.96
27210;BME280;14721;42.668;23.386;2023-03-12T03:02:45;94498.50;;;2.59;70.26
27210;BME280;14721;42.668;23.386;2023-03-12T03:05:11;94506.41;;;2.59;70.80
27210;BME280;14721;42.668;23.386;2023-03-12T03:07:37;94515.25;;;2.58;70.53
27210;BME280;14721;42.668;23.386;2023-03-12T03:10:04;94511.69;;;2.59;70.01
27210;BME280;14721;42.668;23.386;2023-03-12T03:12:30;94517.56;;;2.64;70.38
27210;BME280;14721;42.668;23.386;2023-03-12T03:14:57;94515.00;;;2.62;70.78
27210;BME280;14721;42.668;23.386;2023-03-12T03:17:23;94520.53;;;2.58;71.03
27210;BME280;14721;42.668;23.386;2023-03-12T03:19:49;94515.88;;;2.47;71.31
27210;BME280;14721;42.668;23.386;2023-03-12T03:22:15;94526.94;;;2.54;71.33
27210;BME280;14721;42.668;23.386;2023-03-12T03:24:41;94508.81;;;2.48;72.16
27210;BME280;14721;42.668;23.386;2023-03-12T03:27:07;94506.34;;;2.45;72.00
27210;BME280;14721;42.668;23.386;2023-03-12T03:29:32;94534.50;;;2.44;72.24
27210;BME280;14721;42.668;23.386;2023-03-12T03:31:58;94531.59;;;2.49;71.88
27210;BME280;14721;42.668;23.386;2023-03-12T03:34:24;94524.91;;;2.43;71.77
27210;BME280;14721;42.668;23.386;2023-03-12T03:36:50;94521.41;;;2.43;71.19
27210;BME280;14721;42.668;23.386;2023-03-12T03:39:16;94521.56;;;2.40;70.56
27210;BME280;14721;42.668;23.386;2023-03-12T03:41:41;94545.19;;;2.41;70.89
27210;BME280;14721;42.668;23.386;2023-03-12T03:44:07;94536.34;;;2.42;71.04
27210;BME280;14721;42.668;23.386;2023-03-12T03:46:33;94541.44;;;2.45;70.62
27210;BME280;14721;42.668;23.386;2023-03-12T03:49:01;94540.78;;;2.42;69.02
27210;BME280;14721;42.668;23.386;2023-03-12T03:51:27;94544.44;;;2.39;69.53
27210;BME280;14721;42.668;23.386;2023-03-12T03:53:53;94537.47;;;2.38;69.00
27210;BME280;14721;42.668;23.386;2023-03-12T03:56:19;94554.22;;;2.37;69.97
27210;BME280;14721;42.668;23.386;2023-03-12T03:58:45;94572.84;;;2.34;69.20
27210;BME280;14721;42.668;23.386;2023-03-12T04:01:14;94580.50;;;2.39;69.39
27210;BME280;14721;42.668;23.386;2023-03-12T04:03:40;94589.94;;;2.43;69.65
27210;BME280;14721;42.668;23.386;2023-03-12T04:06:07;94586.53;;;2.41;69.27
27210;BME280;14721;42.668;23.386;2023-03-12T04:08:34;94589.06;;;2.42;69.04
27210;BME280;14721;42.668;23.386;2023-03-12T04:11:13;94595.53;;;2.37;69.14
27210;BME280;14721;42.668;23.386;2023-03-12T04:13:39;94593.16;;;2.32;68.93
27210;BME280;14721;42.668;23.386;2023-03-12T04:16:06;94598.44;;;2.32;69.15
27210;BME280;14721;42.668;23.386;2023-03-12T04:18:32;94599.94;;;2.36;69.32
27210;BME280;14721;42.668;23.386;2023-03-12T04:20:59;94603.53;;;2.35;68.00
27210;BME280;14721;42.668;23.386;2023-03-12T04:23:25;94616.78;;;2.34;65.97
27210;BME280;14721;42.668;23.386;2023-03-12T04:25:51;94619.25;;;2.37;66.15
27210;BME280;14721;42.668;23.386;2023-03-12T04:28:16;94620.47;;;2.31;66.04
27210;BME280;14721;42.668;23.386;2023-03-12T04:30:42;94622.16;;;2.32;65.66
27210;BME280;14721;42.668;23.386;2023-03-12T04:33:07;94637.59;;;2.23;64.84
27210;BME280;14721;42.668;23.386;2023-03-12T04:35:34;94645.66;;;2.20;64.61
27210;BME280;14721;42.668;23.386;2023-03-12T04:38:00;94637.41;;;2.10;65.10
27210;BME280;14721;42.668;23.386;2023-03-12T04:40:26;94646.84;;;2.14;64.34
27210;BME280;14721;42.668;23.386;2023-03-12T04:42:52;94655.53;;;2.16;64.26
27210;BME280;14721;42.668;23.386;2023-03-12T04:45:17;94660.97;;;2.13;64.64
27210;BME280;14721;42.668;23.386;2023-03-12T04:47:44;94664.34;;;2.15;64.57
27210;BME280;14721;42.668;23.386;2023-03-12T04:50:11;94668.53;;;2.19;64.29
27210;BME280;14721;42.668;23.386;2023-03-12T04:52:38;94672.09;;;2.18;64.29
27210;BME280;14721;42.668;23.386;2023-03-12T04:55:04;94678.53;;;2.30;65.35
27210;BME280;14721;42.668;23.386;2023-03-12T04:57:30;94676.06;;;2.27;63.94
27210;BME280;14721;42.668;23.386;2023-03-12T04:59:55;94691.00;;;2.26;63.71
27210;BME280;14721;42.668;23.386;2023-03-12T05:02:21;94685.28;;;2.18;63.93
27210;BME280;14721;42.668;23.386;2023-03-12T05:04:46;94681.03;;;2.16;63.96
27210;BME280;14721;42.668;23.386;2023-03-12T05:07:12;94691.31;;;2.20;64.27
27210;BME280;14721;42.668;23.386;2023-03-12T05:09:37;94688.59;;;2.22;63.56
27210;BME280;14721;42.668;23.386;2023-03-12T05:12:03;94696.66;;;2.19;64.22
27210;BME280;14721;42.668;23.386;2023-03-12T05:14:28;94693.09;;;2.20;64.59
27210;BME280;14721;42.668;23.386;2023-03-12T05:16:54;94701.94;;;2.19;64.42
27210;BME280;14721;42.668;23.386;2023-03-12T05:19:19;94706.13;;;2.23;64.42
27210;BME280;14721;42.668;23.386;2023-03-12T05:21:45;94718.56;;;2.36;64.06
27210;BME280;14721;42.668;23.386;2023-03-12T05:24:11;94719.81;;;2.46;64.03
27210;BME280;14721;42.668;23.386;2023-03-12T05:26:37;94718.72;;;2.50;64.24
27210;BME280;14721;42.668;23.386;2023-03-12T05:29:04;94728.84;;;2.58;63.46
27210;BME280;14721;42.668;23.386;2023-03-12T05:31:30;94723.59;;;2.58;63.36
27210;BME280;14721;42.668;23.386;2023-03-12T05:34:00;94716.50;;;2.58;63.79
27210;BME280;14721;42.668;23.386;2023-03-12T05:36:26;94731.00;;;2.67;62.05
27210;BME280;14721;42.668;23.386;2023-03-12T05:38:52;94735.34;;;2.68;61.47
27210;BME280;14721;42.668;23.386;2023-03-12T05:41:29;94736.53;;;2.78;61.09
27210;BME280;14721;42.668;23.386;2023-03-12T05:43:56;94735.88;;;2.90;59.57
27210;BME280;14721;42.668;23.386;2023-03-12T05:46:24;94738.03;;;3.14;58.00
27210;BME280;14721;42.668;23.386;2023-03-12T05:48:50;94744.44;;;3.57;56.31
27210;BME280;14721;42.668;23.386;2023-03-12T05:51:16;94745.94;;;4.22;55.34
27210;BME280;14721;42.668;23.386;2023-03-12T05:53:41;94743.19;;;4.95;54.48
27210;BME280;14721;42.668;23.386;2023-03-12T05:56:10;94744.06;;;5.64;51.96
27210;BME280;14721;42.668;23.386;2023-03-12T05:58:35;94742.31;;;6.30;50.44
27210;BME280;14721;42.668;23.386;2023-03-12T06:01:03;94758.81;;;6.73;50.12
27210;BME280;14721;42.668;23.386;2023-03-12T06:03:35;94754.16;;;7.26;48.56
27210;BME280;14721;42.668;23.386;2023-03-12T06:06:00;94751.72;;;7.72;47.88
27210;BME280;14721;42.668;23.386;2023-03-12T06:08:26;94750.16;;;7.69;46.82
27210;BME280;14721;42.668;23.386;2023-03-12T06:10:52;94764.31;;;7.57;46.45
27210;BME280;14721;42.668;23.386;2023-03-12T06:13:20;94758.13;;;8.06;45.65
27210;BME280;14721;42.668;23.386;2023-03-12T06:15:47;94774.56;;;8.23;44.42
27210;BME280;14721;42.668;23.386;2023-03-12T06:18:14;94774.50;;;8.36;43.98
27210;BME280;14721;42.668;23.386;2023-03-12T06:20:40;94767.53;;;8.80;43.88
27210;BME280;14721;42.668;23.386;2023-03-12T06:23:06;94771.47;;;8.98;41.70
27210;BME280;14721;42.668;23.386;2023-03-12T06:25:31;94770.72;;;8.96;41.51
27210;BME280;14721;42.668;23.386;2023-03-12T06:27:57;94779.03;;;9.15;41.06
27210;BME280;14721;42.668;23.386;2023-03-12T06:30:23;94772.75;;;9.83;40.57
27210;BME280;14721;42.668;23.386;2023-03-12T06:32:49;94774.69;;;9.70;39.36
27210;BME280;14721;42.668;23.386;2023-03-12T06:35:14;94776.50;;;9.80;40.15
27210;BME280;14721;42.668;23.386;2023-03-12T06:37:40;94785.25;;;9.71;38.91
27210;BME280;14721;42.668;23.386;2023-03-12T06:40:07;94788.63;;;9.95;39.32
27210;BME280;14721;42.668;23.386;2023-03-12T06:42:35;94785.94;;;10.06;38.66
27210;BME280;14721;42.668;23.386;2023-03-12T06:45:01;94794.69;;;10.19;38.56
27210;BME280;14721;42.668;23.386;2023-03-12T06:47:27;94803.31;;;10.12;38.77
27210;BME280;14721;42.668;23.386;2023-03-12T06:49:53;94789.63;;;9.83;39.18
27210;BME280;14721;42.668;23.386;2023-03-12T06:52:20;94795.91;;;9.93;39.14
27210;BME280;14721;42.668;23.386;2023-03-12T06:54:46;94801.38;;;9.58;39.59
27210;BME280;14721;42.668;23.386;2023-03-12T06:57:12;94802.31;;;9.69;39.38
27210;BME280;14721;42.668;23.386;2023-03-12T06:59:38;94804.88;;;9.59;39.60
27210;BME280;14721;42.668;23.386;2023-03-12T07:02:03;94804.63;;;9.73;38.45
27210;BME280;14721;42.668;23.386;2023-03-12T07:04:47;94799.44;;;9.94;37.67
27210;BME280;14721;42.668;23.386;2023-03-12T07:07:13;94818.94;;;9.61;37.92
27210;BME280;14721;42.668;23.386;2023-03-12T07:09:41;94821.16;;;9.89;37.39
27210;BME280;14721;42.668;23.386;2023-03-12T07:12:07;94829.03;;;10.13;37.27
27210;BME280;14721;42.668;23.386;2023-03-12T07:14:33;94827.94;;;10.15;37.24
27210;BME280;14721;42.668;23.386;2023-03-12T07:16:58;94829.53;;;10.60;36.67
27210;BME280;14721;42.668;23.386;2023-03-12T07:19:27;94840.97;;;10.51;35.08
27210;BME280;14721;42.668;23.386;2023-03-12T07:21:54;94853.34;;;10.63;36.43
27210;BME280;14721;42.668;23.386;2023-03-12T07:24:20;94852.06;;;10.89;34.79
27210;BME280;14721;42.668;23.386;2023-03-12T07:26:45;94851.44;;;10.86;34.58
27210;BME280;14721;42.668;23.386;2023-03-12T07:29:11;94839.75;;;10.55;35.39
27210;BME280;14721;42.668;23.386;2023-03-12T07:31:37;94855.44;;;10.91;35.23
27210;BME280;14721;42.668;23.386;2023-03-12T07:34:03;94862.38;;;11.14;34.77
27210;BME280;14721;42.668;23.386;2023-03-12T07:36:31;94861.50;;;10.93;33.87
27210;BME280;14721;42.668;23.386;2023-03-12T07:38:57;94863.44;;;11.23;34.05
27210;BME280;14721;42.668;23.386;2023-03-12T07:41:24;94864.50;;;10.68;34.96
27210;BME280;14721;42.668;23.386;2023-03-12T07:43:50;94862.38;;;11.14;34.23
27210;BME280;14721;42.668;23.386;2023-03-12T07:46:15;94857.13;;;10.92;34.14
27210;BME280;14721;42.668;23.386;2023-03-12T07:48:41;94869.38;;;11.47;33.65
27210;BME280;14721;42.668;23.386;2023-03-12T07:51:07;94876.91;;;11.01;33.94
27210;BME280;14721;42.668;23.386;2023-03-12T07:53:33;94873.03;;;10.51;34.47
27210;BME280;14721;42.668;23.386;2023-03-12T07:55:58;94868.88;;;10.58;34.74
27210;BME280;14721;42.668;23.386;2023-03-12T07:58:24;94869.41;;;10.41;34.34
27210;BME280;14721;42.668;23.386;2023-03-12T08:00:49;94887.56;;;10.69;34.84
27210;BME280;14721;42.668;23.386;2023-03-12T08:03:15;94882.53;;;10.44;33.37
27210;BME280;14721;42.668;23.386;2023-03-12T08:05:42;94888.97;;;10.20;35.08
27210;BME280;14721;42.668;23.386;2023-03-12T08:08:08;94895.34;;;9.73;34.98
27210;BME280;14721;42.668;23.386;2023-03-12T08:10:35;94898.59;;;9.54;35.98
27210;BME280;14721;42.668;23.386;2023-03-12T08:13:01;94896.59;;;9.34;35.10
27210;BME280;14721;42.668;23.386;2023-03-12T08:15:27;94909.22;;;9.09;36.29
27210;BME280;14721;42.668;23.386;2023-03-12T08:17:52;94912.84;;;8.84;37.06
27210;BME280;14721;42.668;23.386;2023-03-12T08:20:18;94921.56;;;9.10;36.36
27210;BME280;14721;42.668;23.386;2023-03-12T08:22:44;94915.88;;;9.14;36.71
27210;BME280;14721;42.668;23.386;2023-03-12T08:25:10;94911.25;;;9.40;37.25
27210;BME280;14721;42.668;23.386;2023-03-12T08:27:36;94920.03;;;9.53;36.84
27210;BME280;14721;42.668;23.386;2023-03-12T08:30:03;94921.31;;;9.36;36.97
27210;BME280;14721;42.668;23.386;2023-03-12T08:32:33;94937.38;;;9.58;37.12
27210;BME280;14721;42.668;23.386;2023-03-12T08:34:58;94923.59;;;9.30;36.78
27210;BME280;14721;42.668;23.386;2023-03-12T08:37:24;94929.66;;;9.78;36.83
27210;BME280;14721;42.668;23.386;2023-03-12T08:39:49;94936.22;;;9.39;36.81
27210;BME280;14721;42.668;23.386;2023-03-12T08:42:16;94947.84;;;9.03;36.32
27210;BME280;14721;42.668;23.386;2023-03-12T08:44:41;94941.06;;;8.63;37.57
27210;BME280;14721;42.668;23.386;2023-03-12T08:47:07;94932.53;;;8.10;39.44
27210;BME280;14721;42.668;23.386;2023-03-12T08:49:33;94919.13;;;7.99;39.11
27210;BME280;14721;42.668;23.386;2023-03-12T08:51:59;94934.03;;;7.89;39.98
27210;BME280;14721;42.668;23.386;2023-03-12T08:54:25;94941.69;;;7.81;40.24
27210;BME280;14721;42.668;23.386;2023-03-12T08:56:51;94936.06;;;7.72;40.56
27210;BME280;14721;42.668;23.386;2023-03-12T08:59:16;94944.66;;;7.89;40.72
27210;BME280;14721;42.668;23.386;2023-03-12T09:01:45;94946.03;;;7.94;40.71
27210;BME280;14721;42.668;23.386;2023-03-12T09:04:10;94945.94;;;7.45;41.31
27210;BME280;14721;42.668;23.386;2023-03-12T09:06:36;94931.72;;;7.07;41.67
27210;BME280;14721;42.668;23.386;2023-03-12T09:09:03;94940.41;;;6.70;43.55
27210;BME280;14721;42.668;23.386;2023-03-12T09:11:35;94944.00;;;6.96;42.83
27210;BME280;14721;42.668;23.386;2023-03-12T09:14:02;94953.28;;;7.03;43.30
27210;BME280;14721;42.668;23.386;2023-03-12T09:16:28;94950.47;;;6.65;43.78
27210;BME280;14721;42.668;23.386;2023-03-12T09:18:54;94935.69;;;6.61;43.99
27210;BME280;14721;42.668;23.386;2023-03-12T09:21:20;94940.41;;;6.70;43.85
27210;BME280;14721;42.668;23.386;2023-03-12T09:23:46;94948.03;;;6.89;44.06
27210;BME280;14721;42.668;23.386;2023-03-12T09:26:18;94956.31;;;6.84;42.92
27210;BME280;14721;42.668;23.386;2023-03-12T09:28:47;94940.53;;;6.55;43.22
27210;BME280;14721;42.668;23.386;2023-03-12T09:31:12;94943.00;;;6.58;44.19
27210;BME280;14721;42.668;23.386;2023-03-12T09:33:39;94943.75;;;6.60;42.90
27210;BME280;14721;42.668;23.386;2023-03-12T09:36:05;94941.81;;;6.49;42.88
27210;BME280;14721;42.668;23.386;2023-03-12T09:38:30;94951.47;;;6.50;43.19
27210;BME280;14721;42.668;23.386;2023-03-12T09:41:00;94942.69;;;6.62;43.57
27210;BME280;14721;42.668;23.386;2023-03-12T09:43:35;94945.72;;;6.70;44.08
27210;BME280;14721;42.668;23.386;2023-03-12T09:46:03;94938.38;;;6.47;43.14
27210;BME280;14721;42.668;23.386;2023-03-12T09:48:36;94932.06;;;6.36;43.57
27210;BME280;14721;42.668;23.386;2023-03-12T09:51:13;94939.66;;;6.28;43.69
27210;BME280;14721;42.668;23.386;2023-03-12T09:53:52;94943.31;;;5.99;43.65
27210;BME280;14721;42.668;23.386;2023-03-12T09:56:21;94937.44;;;6.08;44.12
27210;BME280;14721;42.668;23.386;2023-03-12T09:58:47;94941.88;;;6.21;45.31
27210;BME280;14721;42.668;23.386;2023-03-12T10:10:02;94940.03;;;6.36;43.25
27210;BME280;14721;42.668;23.386;2023-03-12T10:15:18;94931.69;;;6.28;43.74
27210;BME280;14721;42.668;23.386;2023-03-12T10:23:59;94930.88;;;6.27;42.93
27210;BME280;14721;42.668;23.386;2023-03-12T10:26:41;94927.66;;;6.22;43.15
27210;BME280;14721;42.668;23.386;2023-03-12T10:31:54;94917.03;;;6.22;43.31
27210;BME280;14721;42.668;23.386;2023-03-12T10:39:47;94920.78;;;6.46;42.41
27210;BME280;14721;42.668;23.386;2023-03-12T10:42:25;94919.19;;;6.70;42.57
27210;BME280;14721;42.668;23.386;2023-03-12T10:44:53;94937.22;;;7.04;43.18
27210;BME280;14721;42.668;23.386;2023-03-12T10:47:24;94926.72;;;7.03;41.48
27210;BME280;14721;42.668;23.386;2023-03-12T10:49:51;94930.44;;;7.00;43.13
27210;BME280;14721;42.668;23.386;2023-03-12T10:52:22;94925.28;;;6.85;41.19
27210;BME280;14721;42.668;23.386;2023-03-12T10:54:50;94924.28;;;6.73;42.41
27210;BME280;14721;42.668;23.386;2023-03-12T10:57:16;94936.41;;;6.77;43.95
27210;BME280;14721;42.668;23.386;2023-03-12T10:59:45;94925.06;;;6.88;43.61
27210;BME280;14721;42.668;23.386;2023-03-12T11:02:32;94922.66;;;6.97;43.32
27210;BME280;14721;42.668;23.386;2023-03-12T11:05:00;94914.84;;;7.21;43.04
27210;BME280;14721;42.668;23.386;2023-03-12T11:07:30;94915.09;;;7.81;42.49
27210;BME280;14721;42.668;23.386;2023-03-12T11:12:34;94917.69;;;8.18;41.77
27210;BME280;14721;42.668;23.386;2023-03-12T11:17:47;94915.16;;;8.17;40.65
27210;BME280;14721;42.668;23.386;2023-03-12T11:20:28;94896.53;;;8.29;41.14
27210;BME280;14721;42.668;23.386;2023-03-12T11:22:54;94915.03;;;8.43;40.54
27210;BME280;14721;42.668;23.386;2023-03-12T11:25:26;94915.28;;;8.64;40.06
27210;BME280;14721;42.668;23.386;2023-03-12T11:27:55;94913.81;;;8.60;39.73
27210;BME280;14721;42.668;23.386;2023-03-12T11:30:31;94898.75;;;8.35;39.87
27210;BME280;14721;42.668;23.386;2023-03-12T11:33:00;94905.81;;;8.24;39.86
27210;BME280;14721;42.668;23.386;2023-03-12T11:39:06;94910.84;;;7.91;39.94
27210;BME280;14721;42.668;23.386;2023-03-12T11:41:43;94896.31;;;8.20;39.29
27210;BME280;14721;42.668;23.386;2023-03-12T11:49:45;94887.13;;;7.75;39.03
27210;BME280;14721;42.668;23.386;2023-03-12T11:59:20;94900.31;;;8.50;38.39
27210;BME280;14721;42.668;23.386;2023-03-12T12:10:00;94897.31;;;9.02;38.54
27210;BME280;14721;42.668;23.386;2023-03-12T12:26:12;94903.84;;;8.38;38.96
27210;BME280;14721;42.668;23.386;2023-03-12T12:32:00;94891.94;;;8.19;40.30
27210;BME280;14721;42.668;23.386;2023-03-12T12:34:52;94885.78;;;8.18;39.56
27210;BME280;14721;42.668;23.386;2023-03-12T12:37:47;94885.06;;;8.16;39.74
27210;BME280;14721;42.668;23.386;2023-03-12T12:40:28;94885.06;;;7.91;39.88
27210;BME280;14721;42.668;23.386;2023-03-12T12:43:19;94894.56;;;7.83;40.64
27210;BME280;14721;42.668;23.386;2023-03-12T12:45:49;94899.16;;;7.68;40.88
27210;BME280;14721;42.668;23.386;2023-03-12T12:48:20;94893.28;;;7.63;41.44
27210;BME280;14721;42.668;23.386;2023-03-12T12:50:51;94896.78;;;7.76;41.30
27210;BME280;14721;42.668;23.386;2023-03-12T12:53:25;94906.81;;;7.72;40.91
27210;BME280;14721;42.668;23.386;2023-03-12T13:01:04;94905.22;;;7.70;41.26
27210;BME280;14721;42.668;23.386;2023-03-12T13:03:30;94894.13;;;7.76;40.52
27210;BME280;14721;42.668;23.386;2023-03-12T13:05:59;94899.25;;;7.79;40.70
27210;BME280;14721;42.668;23.386;2023-03-12T13:16:37;94899.69;;;7.60;41.75
27210;BME280;14721;42.668;23.386;2023-03-12T13:24:41;94911.81;;;7.52;41.62
27210;BME280;14721;42.668;23.386;2023-03-12T13:27:27;94907.88;;;7.32;41.70
27210;BME280;14721;42.668;23.386;2023-03-12T13:29:54;94910.84;;;7.28;42.91
27210;BME280;14721;42.668;23.386;2023-03-12T13:37:57;94912.44;;;7.68;41.37
27210;BME280;14721;42.668;23.386;2023-03-12T13:46:26;94913.94;;;7.85;41.52
27210;BME280;14721;42.668;23.386;2023-03-12T13:48:25;94912.31;;;7.82;41.65
27210;BME280;14721;42.668;23.386;2023-03-12T13:50:57;94910.63;;;7.81;42.06
27210;BME280;14721;42.668;23.386;2023-03-12T13:53:36;94914.16;;;7.82;40.96
27210;BME280;14721;42.668;23.386;2023-03-12T13:56:15;94924.78;;;7.69;41.93
27210;BME280;14721;42.668;23.386;2023-03-12T13:59:05;94921.41;;;7.67;41.68
27210;BME280;14721;42.668;23.386;2023-03-12T14:01:39;94911.41;;;7.58;41.94
27210;BME280;14721;42.668;23.386;2023-03-12T14:04:10;94929.69;;;7.62;42.28
27210;BME280;14721;42.668;23.386;2023-03-12T14:06:57;94917.97;;;7.78;41.37
27210;BME280;14721;42.668;23.386;2023-03-12T14:15:43;94924.56;;;7.85;41.59
27210;BME280;14721;42.668;23.386;2023-03-12T14:18:17;94924.06;;;7.67;41.89
27210;BME280;14721;42.668;23.386;2023-03-12T14:20:53;94920.66;;;7.65;41.78
27210;BME280;14721;42.668;23.386;2023-03-12T14:23:21;94931.03;;;7.81;41.13
27210;BME280;14721;42.668;23.386;2023-03-12T14:25:52;94931.25;;;7.78;40.80
27210;BME280;14721;42.668;23.386;2023-03-12T14:28:22;94939.56;;;7.73;40.64
27210;BME280;14721;42.668;23.386;2023-03-12T14:33:33;94940.97;;;7.79;41.02
27210;BME280;14721;42.668;23.386;2023-03-12T14:36:05;94940.09;;;7.78;41.54
27210;BME280;14721;42.668;23.386;2023-03-12T14:38:38;94947.66;;;7.84;41.31
27210;BME280;14721;42.668;23.386;2023-03-12T14:41:35;94941.78;;;7.92;41.17
27210;BME280;14721;42.668;23.386;2023-03-12T14:44:23;94936.91;;;7.86;40.97
27210;BME280;14721;42.668;23.386;2023-03-12T14:47:11;94935.72;;;7.90;40.71
27210;BME280;14721;42.668;23.386;2023-03-12T14:49:45;94946.16;;;7.93;40.49
27210;BME280;14721;42.668;23.386;2023-03-12T14:52:14;94948.59;;;7.96;40.14
27210;BME280;14721;42.668;23.386;2023-03-12T14:57:20;94943.50;;;8.05;40.47
27210;BME280;14721;42.668;23.386;2023-03-12T15:00:21;94944.63;;;8.14;40.23
27210;BME280;14721;42.668;23.386;2023-03-12T15:02:47;94947.19;;;8.15;40.41
27210;BME280;14721;42.668;23.386;2023-03-12T15:05:17;94952.94;;;8.22;40.86
27210;BME280;14721;42.668;23.386;2023-03-12T15:07:48;94955.06;;;8.17;39.95